createdAt,value
2022-10-30T00:01:07.996Z,9.74
2022-10-30T00:03:40.970Z,9.77
2022-10-30T00:06:08.721Z,9.77
2022-10-30T00:08:36.209Z,9.77
2022-10-30T00:11:13.007Z,9.75
2022-10-30T00:13:46.631Z,9.73
2022-10-30T00:16:13.941Z,9.72
2022-10-30T00:18:42.999Z,9.72
2022-10-30T00:21:15.149Z,9.70
2022-10-30T00:23:52.381Z,9.67
2022-10-30T00:26:22.317Z,9.63
2022-10-30T00:28:51.919Z,9.60
2022-10-30T00:31:20.191Z,9.58
2022-10-30T00:33:55.216Z,9.56
2022-10-30T00:36:23.220Z,9.54
2022-10-30T00:38:50.540Z,9.54
2022-10-30T00:41:23.130Z,9.54
2022-10-30T00:43:51.452Z,9.55
2022-10-30T00:46:30.154Z,9.53
2022-10-30T00:49:16.320Z,9.48
2022-10-30T00:51:52.487Z,9.44
2022-10-30T00:54:20.971Z,9.38
2022-10-30T00:56:50.517Z,9.35
2022-10-30T00:59:34.509Z,9.30
2022-10-30T01:02:04.017Z,9.26
2022-10-30T01:04:36.087Z,9.22
2022-10-30T01:07:10.937Z,9.21
2022-10-30T01:09:40.091Z,9.18
2022-10-30T01:12:07.991Z,9.16
2022-10-30T01:14:40.671Z,9.14
2022-10-30T01:17:42.012Z,9.13
2022-10-30T01:20:21.552Z,9.14
2022-10-30T01:23:17.171Z,9.16
2022-10-30T01:26:11.257Z,9.17
2022-10-30T01:29:19.426Z,9.17
2022-10-30T01:32:17.671Z,9.14
2022-10-30T01:35:15.528Z,9.12
2022-10-30T01:38:03.974Z,9.09
2022-10-30T01:40:33.450Z,9.09
2022-10-30T01:43:00.844Z,9.08
2022-10-30T01:46:13.908Z,9.08
2022-10-30T01:49:39.888Z,9.05
2022-10-30T01:52:26.857Z,9.01
2022-10-30T01:55:22.242Z,8.97
2022-10-30T01:58:12.098Z,8.95
2022-10-30T02:00:41.900Z,8.92
2022-10-30T02:03:09.605Z,8.93
2022-10-30T02:05:45.388Z,8.96
2022-10-30T02:08:13.004Z,8.99
2022-10-30T02:10:43.263Z,9.01
2022-10-30T02:13:10.982Z,9.03
2022-10-30T02:15:39.266Z,9.07
2022-10-30T02:18:06.510Z,9.10
2022-10-30T02:20:34.068Z,9.13
2022-10-30T02:23:01.902Z,9.16
2022-10-30T02:25:32.898Z,9.21
2022-10-30T02:28:00.233Z,9.25
2022-10-30T02:30:29.338Z,9.28
2022-10-30T02:32:56.883Z,9.32
2022-10-30T02:35:24.881Z,9.34
2022-10-30T02:37:52.626Z,9.36
2022-10-30T02:40:20.182Z,9.40
2022-10-30T02:42:54.819Z,9.43
2022-10-30T02:45:22.384Z,9.45
2022-10-30T02:47:50.434Z,9.44
2022-10-30T02:50:17.909Z,9.43
2022-10-30T02:52:45.173Z,9.41
2022-10-30T02:55:12.824Z,9.40
2022-10-30T02:57:41.301Z,9.41
2022-10-30T03:00:09.888Z,9.43
2022-10-30T03:02:37.382Z,9.43
2022-10-30T03:05:05.423Z,9.45
2022-10-30T03:07:32.604Z,9.48
2022-10-30T03:09:59.816Z,9.50
2022-10-30T03:12:27.069Z,9.50
2022-10-30T03:14:54.333Z,9.50
2022-10-30T03:17:21.577Z,9.52
2022-10-30T03:19:51.100Z,9.51
2022-10-30T03:22:18.332Z,9.50
2022-10-30T03:24:45.502Z,9.51
2022-10-30T03:27:12.754Z,9.50
2022-10-30T03:29:40.605Z,9.49
2022-10-30T03:32:11.573Z,9.47
2022-10-30T03:34:48.086Z,9.46
2022-10-30T03:37:15.383Z,9.49
2022-10-30T03:39:42.632Z,9.53
2022-10-30T03:42:09.896Z,9.54
2022-10-30T03:44:37.127Z,9.57
2022-10-30T03:47:04.783Z,9.60
2022-10-30T03:49:39.626Z,9.62
2022-10-30T03:52:10.159Z,9.63
2022-10-30T03:54:37.402Z,9.65
2022-10-30T03:57:04.767Z,9.68
2022-10-30T03:59:40.213Z,9.69
2022-10-30T04:03:07.989Z,9.72
2022-10-30T04:05:37.387Z,9.76
2022-10-30T04:08:10.681Z,9.79
2022-10-30T04:10:42.199Z,9.82
2022-10-30T04:13:13.044Z,9.80
2022-10-30T04:15:54.175Z,9.77
2022-10-30T04:18:25.844Z,9.75
2022-10-30T04:20:53.884Z,9.72
2022-10-30T04:23:22.457Z,9.74
2022-10-30T04:25:49.826Z,9.74
2022-10-30T04:28:18.101Z,9.73
2022-10-30T04:30:46.588Z,9.70
2022-10-30T04:33:14.868Z,9.69
2022-10-30T04:35:42.832Z,9.67
2022-10-30T04:38:15.363Z,9.66
2022-10-30T04:40:44.405Z,9.62
2022-10-30T04:43:13.829Z,9.59
2022-10-30T04:45:42.183Z,9.57
2022-10-30T04:48:15.373Z,9.58
2022-10-30T04:50:43.808Z,9.61
2022-10-30T04:53:18.793Z,9.63
2022-10-30T04:55:47.887Z,9.63
2022-10-30T04:58:15.453Z,9.62
2022-10-30T05:00:44.241Z,9.60
2022-10-30T05:03:21.731Z,9.59
2022-10-30T05:05:59.274Z,9.58
2022-10-30T05:08:27.495Z,9.59
2022-10-30T05:10:56.382Z,9.61
2022-10-30T05:13:24.559Z,9.61
2022-10-30T05:15:55.103Z,9.61
2022-10-30T05:18:22.887Z,9.60
2022-10-30T05:20:50.279Z,9.61
2022-10-30T05:23:17.563Z,9.61
2022-10-30T05:25:45.138Z,9.62
2022-10-30T05:28:12.999Z,9.64
2022-10-30T05:30:46.595Z,9.67
2022-10-30T05:34:09.873Z,9.72
2022-10-30T05:36:38.767Z,9.76
2022-10-30T05:39:06.125Z,9.78
2022-10-30T05:41:36.750Z,9.81
2022-10-30T05:44:04.510Z,9.87
2022-10-30T05:46:32.172Z,9.92
2022-10-30T05:49:06.795Z,9.97
2022-10-30T05:51:38.022Z,10.01
2022-10-30T05:54:09.004Z,10.07
2022-10-30T05:56:37.769Z,10.12
2022-10-30T05:59:05.242Z,10.18
2022-10-30T06:01:32.921Z,10.29
2022-10-30T06:04:01.788Z,10.39
2022-10-30T06:06:29.245Z,10.48
2022-10-30T06:08:56.915Z,10.49
2022-10-30T06:12:04.652Z,10.65
2022-10-30T06:14:57.350Z,10.74
2022-10-30T06:17:24.816Z,10.84
2022-10-30T06:20:00.357Z,10.92
2022-10-30T06:22:56.523Z,11.05
2022-10-30T06:25:28.163Z,11.13
2022-10-30T06:28:13.253Z,11.22
2022-10-30T06:30:41.907Z,11.32
2022-10-30T06:33:10.189Z,11.41
2022-10-30T06:35:40.202Z,11.46
2022-10-30T06:38:09.621Z,11.51
2022-10-30T06:40:36.852Z,11.60
2022-10-30T06:43:18.546Z,11.73
2022-10-30T06:46:35.563Z,11.85
2022-10-30T06:49:03.382Z,11.97
2022-10-30T06:51:32.027Z,12.05
2022-10-30T06:54:00.404Z,12.08
2022-10-30T06:56:39.843Z,12.12
2022-10-30T06:59:52.563Z,12.16
2022-10-30T07:03:16.744Z,12.25
2022-10-30T07:05:44.459Z,12.25
2022-10-30T07:08:12.073Z,12.33
2022-10-30T07:10:39.947Z,12.46
2022-10-30T07:14:05.878Z,12.63
2022-10-30T07:16:43.267Z,12.79
2022-10-30T07:19:12.047Z,12.83
2022-10-30T07:21:39.303Z,12.90
2022-10-30T07:24:07.689Z,13.04
2022-10-30T07:26:42.921Z,13.15
2022-10-30T07:29:29.563Z,13.27
2022-10-30T07:33:03.500Z,13.44
2022-10-30T07:36:24.363Z,13.52
2022-10-30T07:39:11.282Z,13.51
2022-10-30T07:41:47.366Z,13.58
2022-10-30T07:44:35.470Z,13.86
2022-10-30T07:47:19.140Z,13.97
2022-10-30T07:50:42.230Z,14.13
2022-10-30T07:53:09.738Z,14.25
2022-10-30T07:55:37.137Z,14.32
2022-10-30T07:59:06.700Z,14.38
2022-10-30T08:01:52.713Z,14.41
2022-10-30T08:04:35.016Z,14.47
2022-10-30T08:07:11.075Z,14.64
2022-10-30T08:09:39.546Z,14.74
2022-10-30T08:12:07.870Z,14.95
2022-10-30T08:14:35.083Z,15.20
2022-10-30T08:17:02.630Z,15.53
2022-10-30T08:19:30.192Z,15.78
2022-10-30T08:22:00.172Z,16.05
2022-10-30T08:24:28.014Z,16.34
2022-10-30T08:26:56.272Z,16.54
2022-10-30T08:29:24.126Z,16.81
2022-10-30T08:31:52.302Z,17.07
2022-10-30T08:34:23.788Z,17.23
2022-10-30T08:36:53.774Z,17.39
2022-10-30T08:39:21.133Z,17.53
2022-10-30T08:41:59.480Z,17.66
2022-10-30T08:44:29.764Z,17.71
2022-10-30T08:47:15.352Z,17.78
2022-10-30T08:49:42.826Z,17.87
2022-10-30T08:52:10.579Z,17.94
2022-10-30T08:54:39.153Z,18.02
2022-10-30T08:57:07.023Z,18.07
2022-10-30T08:59:34.993Z,18.01
2022-10-30T09:02:02.517Z,17.99
2022-10-30T09:04:48.456Z,18.06
2022-10-30T09:07:35.763Z,18.19
2022-10-30T09:10:39.167Z,18.31
2022-10-30T09:13:07.149Z,18.38
2022-10-30T09:15:35.633Z,18.58
2022-10-30T09:18:04.259Z,18.77
2022-10-30T09:20:31.767Z,18.92
2022-10-30T09:22:59.653Z,18.97
2022-10-30T09:25:27.722Z,19.01
2022-10-30T09:28:14.206Z,19.10
2022-10-30T09:31:02.041Z,19.09
2022-10-30T09:33:30.833Z,19.26
2022-10-30T09:36:19.710Z,19.35
2022-10-30T09:38:50.020Z,19.35
2022-10-30T09:41:28.532Z,19.39
2022-10-30T09:44:20.472Z,19.55
2022-10-30T09:47:20.835Z,19.65
2022-10-30T09:50:34.487Z,19.71
2022-10-30T09:53:34.452Z,19.68
2022-10-30T09:56:17.787Z,19.51
2022-10-30T09:59:04.253Z,19.28
2022-10-30T10:01:45.880Z,19.38
2022-10-30T10:04:33.714Z,19.40
2022-10-30T10:07:46.865Z,19.37
2022-10-30T10:10:45.865Z,19.42
2022-10-30T10:13:27.117Z,19.35
2022-10-30T10:16:07.387Z,19.13
2022-10-30T10:18:54.864Z,19.26
2022-10-30T10:21:26.210Z,19.44
2022-10-30T10:24:02.019Z,19.64
2022-10-30T10:26:49.879Z,19.84
2022-10-30T10:29:35.946Z,20.12
2022-10-30T10:32:28.594Z,20.33
2022-10-30T10:35:36.199Z,20.42
2022-10-30T10:38:21.713Z,20.28
2022-10-30T10:41:07.355Z,20.28
2022-10-30T10:44:05.661Z,20.30
2022-10-30T10:46:48.144Z,19.97
2022-10-30T10:49:58.926Z,19.80
2022-10-30T10:52:41.529Z,19.55
2022-10-30T10:55:38.693Z,19.47
2022-10-30T10:58:41.475Z,19.36
2022-10-30T11:01:18.352Z,19.25
2022-10-30T11:04:24.010Z,19.19
2022-10-30T11:06:53.972Z,19.22
2022-10-30T11:09:23.933Z,19.17
2022-10-30T11:11:54.769Z,19.03
2022-10-30T11:14:27.560Z,18.94
2022-10-30T11:17:19.969Z,18.80
2022-10-30T11:19:58.322Z,18.77
2022-10-30T11:22:38.794Z,18.72
2022-10-30T11:25:33.270Z,18.69
2022-10-30T11:28:04.147Z,18.65
2022-10-30T11:30:32.080Z,18.62
2022-10-30T11:33:22.592Z,18.61
2022-10-30T11:35:50.961Z,18.67
2022-10-30T11:38:20.110Z,18.65
2022-10-30T11:40:52.232Z,18.65
2022-10-30T11:43:23.904Z,18.48
2022-10-30T11:45:52.358Z,18.57
2022-10-30T11:48:33.666Z,18.53
2022-10-30T11:51:03.659Z,18.50
2022-10-30T11:53:38.905Z,18.41
2022-10-30T11:56:23.454Z,18.45
2022-10-30T11:58:57.624Z,18.50
2022-10-30T12:01:34.294Z,18.55
2022-10-30T12:04:25.467Z,18.65
2022-10-30T12:07:28.821Z,18.72
2022-10-30T12:10:01.242Z,18.75
2022-10-30T12:12:35.866Z,18.73
2022-10-30T12:15:20.326Z,18.66
2022-10-30T12:18:02.735Z,18.53
2022-10-30T12:20:30.085Z,18.53
2022-10-30T12:22:58.325Z,18.59
2022-10-30T12:25:31.399Z,18.46
2022-10-30T12:28:20.484Z,18.38
2022-10-30T12:31:10.405Z,18.42
2022-10-30T12:34:28.546Z,18.37
2022-10-30T12:37:23.659Z,18.31
2022-10-30T12:40:10.871Z,18.25
2022-10-30T12:42:52.385Z,18.32
2022-10-30T12:45:23.191Z,18.37
2022-10-30T12:48:10.927Z,18.44
2022-10-30T12:51:12.379Z,18.44
2022-10-30T12:53:48.754Z,18.46
2022-10-30T12:56:25.533Z,18.53
2022-10-30T12:59:12.450Z,18.54
2022-10-30T13:02:11.036Z,18.52
2022-10-30T13:04:44.530Z,18.40
2022-10-30T13:07:36.765Z,18.33
2022-10-30T13:10:10.177Z,18.28
2022-10-30T13:12:41.651Z,18.25
2022-10-30T13:15:46.242Z,18.24
2022-10-30T13:18:21.277Z,18.21
2022-10-30T13:21:10.353Z,18.23
2022-10-30T13:24:02.288Z,18.21
2022-10-30T13:26:46.630Z,18.16
2022-10-30T13:29:46.553Z,18.06
2022-10-30T13:32:27.018Z,18.02
2022-10-30T13:35:17.613Z,17.97
2022-10-30T13:38:52.560Z,17.87
2022-10-30T13:42:21.553Z,17.76
2022-10-30T13:45:38.588Z,17.63
2022-10-30T13:48:31.946Z,17.58
2022-10-30T13:51:24.656Z,17.46
2022-10-30T13:54:08.653Z,17.36
2022-10-30T13:56:36.735Z,17.38
2022-10-30T13:59:34.267Z,17.34
2022-10-30T14:02:24.988Z,17.30
2022-10-30T14:05:01.351Z,17.17
2022-10-30T14:08:05.181Z,17.14
2022-10-30T14:10:55.939Z,17.08
2022-10-30T14:13:36.221Z,17.05
2022-10-30T14:16:27.554Z,16.93
2022-10-30T14:19:11.694Z,16.96
2022-10-30T14:21:59.517Z,16.92
2022-10-30T14:24:34.635Z,16.89
2022-10-30T14:27:04.796Z,16.86
2022-10-30T14:29:35.427Z,16.83
2022-10-30T14:32:17.413Z,16.83
2022-10-30T14:34:50.943Z,16.80
2022-10-30T14:37:27.684Z,16.77
2022-10-30T14:39:56.981Z,16.74
2022-10-30T14:42:30.928Z,16.67
2022-10-30T14:45:22.427Z,16.70
2022-10-30T14:48:20.390Z,16.71
2022-10-30T14:51:12.953Z,16.70
2022-10-30T14:54:01.484Z,16.61
2022-10-30T14:56:50.243Z,16.53
2022-10-30T14:59:17.394Z,16.46
2022-10-30T15:02:19.199Z,16.39
2022-10-30T15:05:33.454Z,16.36
2022-10-30T15:08:29.140Z,16.28
2022-10-30T15:11:18.173Z,16.24
2022-10-30T15:13:51.098Z,16.23
2022-10-30T15:16:21.159Z,16.23
2022-10-30T15:19:06.069Z,16.20
2022-10-30T15:21:43.876Z,16.21
2022-10-30T15:24:24.240Z,16.22
2022-10-30T15:26:57.666Z,16.22
2022-10-30T15:29:36.269Z,16.22
2022-10-30T15:32:16.045Z,16.22
2022-10-30T15:35:30.660Z,16.24
2022-10-30T15:38:05.593Z,16.21
2022-10-30T15:40:39.970Z,16.21
2022-10-30T15:43:13.592Z,16.23
2022-10-30T15:45:46.708Z,16.25
2022-10-30T15:48:25.543Z,16.23
2022-10-30T15:51:27.712Z,16.22
2022-10-30T15:54:01.001Z,16.19
2022-10-30T15:57:08.314Z,16.17
2022-10-30T15:59:35.137Z,16.17
2022-10-30T16:02:02.631Z,16.13
2022-10-30T16:04:36.459Z,16.12
2022-10-30T16:07:20.093Z,16.11
2022-10-30T16:10:00.829Z,16.11
2022-10-30T16:12:33.289Z,16.11
2022-10-30T16:15:30.957Z,16.13
2022-10-30T16:18:16.225Z,16.14
2022-10-30T16:20:51.498Z,16.17
2022-10-30T16:23:20.068Z,16.17
2022-10-30T16:25:54.435Z,16.18
2022-10-30T16:28:33.098Z,16.18
2022-10-30T16:31:04.446Z,16.16
2022-10-30T16:33:34.784Z,16.11
2022-10-30T16:36:04.593Z,16.06
2022-10-30T16:38:36.357Z,16.00
2022-10-30T16:41:12.908Z,15.98
2022-10-30T16:43:44.244Z,15.90
2022-10-30T16:46:15.203Z,15.82
2022-10-30T16:48:59.062Z,15.73
2022-10-30T16:51:26.813Z,15.66
2022-10-30T16:53:54.259Z,15.56
2022-10-30T16:56:31.776Z,15.35
2022-10-30T16:59:26.562Z,15.14
2022-10-30T17:01:58.369Z,14.62
2022-10-30T17:04:27.832Z,14.25
2022-10-30T17:07:16.787Z,13.98
2022-10-30T17:09:46.198Z,13.75
2022-10-30T17:12:25.491Z,13.52
2022-10-30T17:15:17.495Z,13.43
2022-10-30T17:18:10.390Z,13.22
2022-10-30T17:20:37.990Z,13.10
2022-10-30T17:23:16.180Z,13.06
2022-10-30T17:25:44.044Z,13.02
2022-10-30T17:28:33.722Z,12.98
2022-10-30T17:31:36.002Z,12.97
2022-10-30T17:34:20.163Z,12.98
2022-10-30T17:36:49.030Z,12.92
2022-10-30T17:39:16.292Z,12.88
2022-10-30T17:41:43.806Z,12.85
2022-10-30T17:44:22.606Z,12.84
2022-10-30T17:46:52.137Z,12.92
2022-10-30T17:49:31.841Z,12.95
2022-10-30T17:51:59.467Z,12.94
2022-10-30T17:54:26.847Z,12.90
2022-10-30T17:56:54.724Z,12.89
2022-10-30T17:59:21.871Z,12.88
2022-10-30T18:01:49.617Z,12.90
2022-10-30T18:04:21.089Z,12.98
2022-10-30T18:06:49.194Z,13.03
2022-10-30T18:09:16.394Z,13.05
2022-10-30T18:11:43.530Z,13.05
2022-10-30T18:14:12.139Z,13.04
2022-10-30T18:16:39.895Z,13.13
2022-10-30T18:19:11.076Z,13.13
2022-10-30T18:21:38.591Z,13.19
2022-10-30T18:24:12.062Z,13.25
2022-10-30T18:26:40.910Z,13.24
2022-10-30T18:29:09.389Z,13.26
2022-10-30T18:31:39.635Z,13.27
2022-10-30T18:34:17.704Z,13.22
2022-10-30T18:36:44.904Z,13.22
2022-10-30T18:39:12.602Z,13.23
2022-10-30T18:41:43.360Z,13.21
2022-10-30T18:44:18.222Z,13.24
2022-10-30T18:46:46.341Z,13.25
2022-10-30T18:49:13.831Z,13.22
2022-10-30T18:51:41.098Z,13.19
2022-10-30T18:54:15.157Z,13.16
2022-10-30T18:56:42.711Z,13.15
2022-10-30T18:59:09.815Z,13.12
2022-10-30T19:01:37.553Z,13.15
2022-10-30T19:04:11.317Z,12.97
2022-10-30T19:06:38.614Z,13.08
2022-10-30T19:09:06.726Z,13.07
2022-10-30T19:11:36.462Z,13.07
2022-10-30T19:14:13.579Z,13.05
2022-10-30T19:16:41.611Z,13.02
2022-10-30T19:19:08.742Z,13.00
2022-10-30T19:21:36.940Z,12.98
2022-10-30T19:24:13.290Z,12.99
2022-10-30T19:26:40.902Z,13.00
2022-10-30T19:29:08.143Z,12.99
2022-10-30T19:31:35.312Z,12.98
2022-10-30T19:34:02.960Z,13.01
2022-10-30T19:36:35.682Z,13.00
2022-10-30T19:39:11.302Z,13.02
2022-10-30T19:41:39.415Z,12.99
2022-10-30T19:44:06.704Z,12.99
2022-10-30T19:46:35.003Z,12.98
2022-10-30T19:49:19.802Z,12.94
2022-10-30T19:51:47.264Z,12.89
2022-10-30T19:54:15.367Z,12.78
2022-10-30T19:56:43.694Z,12.70
2022-10-30T19:59:15.117Z,12.61
2022-10-30T20:01:44.185Z,12.51
2022-10-30T20:04:12.235Z,12.40
2022-10-30T20:06:39.786Z,12.28
2022-10-30T20:09:11.956Z,12.17
2022-10-30T20:11:39.298Z,12.05
2022-10-30T20:14:06.558Z,11.93
2022-10-30T20:16:33.814Z,11.87
2022-10-30T20:19:20.110Z,11.87
2022-10-30T20:21:48.074Z,11.87
2022-10-30T20:24:15.223Z,11.87
2022-10-30T20:26:43.624Z,11.87
2022-10-30T20:29:11.178Z,11.86
2022-10-30T20:31:38.437Z,11.83
2022-10-30T20:34:05.975Z,11.75
2022-10-30T20:36:33.339Z,11.67
2022-10-30T20:39:01.005Z,11.53
2022-10-30T20:41:29.692Z,11.42
2022-10-30T20:43:56.935Z,11.31
2022-10-30T20:46:24.204Z,11.18
2022-10-30T20:48:51.447Z,11.06
2022-10-30T20:51:18.701Z,11.00
2022-10-30T20:53:46.316Z,10.90
2022-10-30T20:56:13.836Z,10.80
2022-10-30T20:58:41.691Z,10.74
2022-10-30T21:01:09.119Z,10.67
2022-10-30T21:03:36.497Z,10.60
2022-10-30T21:06:04.173Z,10.55
2022-10-30T21:08:31.711Z,10.52
2022-10-30T21:11:05.124Z,10.45
2022-10-30T21:13:36.802Z,10.38
2022-10-30T21:16:08.332Z,10.34
2022-10-30T21:18:36.207Z,10.31
2022-10-30T21:21:07.519Z,10.24
2022-10-30T21:23:34.991Z,10.18
2022-10-30T21:26:05.863Z,10.10
2022-10-30T21:28:34.428Z,10.04
2022-10-30T21:31:07.955Z,10.00
2022-10-30T21:33:36.533Z,9.93
2022-10-30T21:36:13.563Z,9.88
2022-10-30T21:38:43.896Z,9.83
2022-10-30T21:41:14.140Z,9.78
2022-10-30T21:43:42.424Z,9.72
2022-10-30T21:46:12.454Z,9.63
2022-10-30T21:48:40.201Z,9.56
2022-10-30T21:51:13.120Z,9.50
2022-10-30T21:53:41.370Z,9.48
2022-10-30T21:56:18.774Z,9.47
2022-10-30T21:58:47.031Z,9.48
2022-10-30T22:01:20.553Z,9.50
2022-10-30T22:03:49.028Z,9.51
2022-10-30T22:06:19.204Z,9.47
2022-10-30T22:08:49.032Z,9.42
2022-10-30T22:11:17.854Z,9.41
2022-10-30T22:13:46.327Z,9.40
2022-10-30T22:16:15.249Z,9.35
2022-10-30T22:18:42.581Z,9.29
2022-10-30T22:21:12.576Z,9.22
2022-10-30T22:23:41.094Z,9.20
2022-10-30T22:26:15.916Z,9.17
2022-10-30T22:28:44.288Z,9.15
2022-10-30T22:31:17.982Z,9.11
2022-10-30T22:33:45.856Z,9.07
2022-10-30T22:36:23.308Z,9.07
2022-10-30T22:39:01.221Z,9.03
2022-10-30T22:41:32.949Z,9.00
2022-10-30T22:44:11.784Z,8.99
2022-10-30T22:46:39.790Z,8.92
2022-10-30T22:49:07.770Z,8.87
2022-10-30T22:51:39.115Z,8.85
2022-10-30T22:54:11.700Z,8.80
2022-10-30T22:56:40.190Z,8.77
2022-10-30T22:59:11.541Z,8.74
2022-10-30T23:01:40.534Z,8.70
2022-10-30T23:04:10.979Z,8.65
2022-10-30T23:06:38.323Z,8.57
2022-10-30T23:09:14.675Z,8.49
2022-10-30T23:11:42.447Z,8.42
2022-10-30T23:14:09.699Z,8.37
2022-10-30T23:16:36.939Z,8.36
2022-10-30T23:19:04.215Z,8.32
2022-10-30T23:21:31.767Z,8.27
2022-10-30T23:24:01.465Z,8.23
2022-10-30T23:26:32.445Z,8.21
2022-10-30T23:29:01.272Z,8.17
2022-10-30T23:31:39.106Z,8.15
2022-10-30T23:34:11.180Z,8.12
2022-10-30T23:36:39.380Z,8.12
2022-10-30T23:39:17.650Z,8.10
2022-10-30T23:41:45.108Z,8.07
2022-10-30T23:44:15.420Z,8.06
2022-10-30T23:46:43.036Z,8.03
2022-10-30T23:49:10.584Z,8.03
2022-10-30T23:51:38.733Z,7.97
2022-10-30T23:54:05.906Z,7.96
2022-10-30T23:56:33.064Z,7.96
2022-10-30T23:59:00.704Z,7.98
